sensor_id;sensor_type;location;lat;lon;timestamp;temperature;humidity
47336;DHT22;33068;51.990;5.926;2023-07-31T00:02:06;14.90;99.90
47336;DHT22;33068;51.990;5.926;2023-07-31T00:04:33;14.90;99.90
47336;DHT22;33068;51.990;5.926;2023-07-31T00:06:59;14.90;99.90
47336;DHT22;33068;51.990;5.926;2023-07-31T00:09:25;14.90;99.90
47336;DHT22;33068;51.990;5.926;2023-07-31T00:11:52;14.90;99.90
47336;DHT22;33068;51.990;5.926;2023-07-31T00:14:19;14.90;99.90
47336;DHT22;33068;51.990;5.926;2023-07-31T00:16:45;14.90;99.90
47336;DHT22;33068;51.990;5.926;2023-07-31T00:19:11;14.90;99.90
47336;DHT22;33068;51.990;5.926;2023-07-31T00:21:38;15.00;99.90
47336;DHT22;33068;51.990;5.926;2023-07-31T00:24:04;14.70;99.90
47336;DHT22;33068;51.990;5.926;2023-07-31T00:26:31;14.90;99.90
47336;DHT22;33068;51.990;5.926;2023-07-31T00:28:58;14.90;99.90
47336;DHT22;33068;51.990;5.926;2023-07-31T00:31:25;15.00;99.90
47336;DHT22;33068;51.990;5.926;2023-07-31T00:33:51;15.00;99.90
47336;DHT22;33068;51.990;5.926;2023-07-31T00:36:18;15.00;99.90
47336;DHT22;33068;51.990;5.926;2023-07-31T00:38:44;15.00;99.90
47336;DHT22;33068;51.990;5.926;2023-07-31T00:41:11;15.10;99.90
47336;DHT22;33068;51.990;5.926;2023-07-31T00:43:37;15.10;99.90
47336;DHT22;33068;51.990;5.926;2023-07-31T00:46:04;15.10;99.90
47336;DHT22;33068;51.990;5.926;2023-07-31T00:48:32;15.20;99.90
47336;DHT22;33068;51.990;5.926;2023-07-31T00:50:59;15.20;99.90
47336;DHT22;33068;51.990;5.926;2023-07-31T00:53:27;15.30;99.90
47336;DHT22;33068;51.990;5.926;2023-07-31T00:55:54;15.30;99.90
47336;DHT22;33068;51.990;5.926;2023-07-31T00:58:20;15.40;99.90
47336;DHT22;33068;51.990;5.926;2023-07-31T01:00:47;15.40;99.90
47336;DHT22;33068;51.990;5.926;2023-07-31T01:03:14;15.50;99.90
47336;DHT22;33068;51.990;5.926;2023-07-31T01:05:49;15.50;99.90
47336;DHT22;33068;51.990;5.926;2023-07-31T01:08:27;15.60;99.90
47336;DHT22;33068;51.990;5.926;2023-07-31T01:11:00;15.60;99.90
47336;DHT22;33068;51.990;5.926;2023-07-31T01:13:31;15.70;99.90
47336;DHT22;33068;51.990;5.926;2023-07-31T01:15:58;15.70;99.90
47336;DHT22;33068;51.990;5.926;2023-07-31T01:18:25;15.80;99.90
47336;DHT22;33068;51.990;5.926;2023-07-31T01:20:57;15.80;99.90
47336;DHT22;33068;51.990;5.926;2023-07-31T01:23:35;15.90;99.90
47336;DHT22;33068;51.990;5.926;2023-07-31T01:26:12;15.90;99.90
47336;DHT22;33068;51.990;5.926;2023-07-31T01:28:46;15.90;99.90
47336;DHT22;33068;51.990;5.926;2023-07-31T01:31:20;16.00;99.90
47336;DHT22;33068;51.990;5.926;2023-07-31T01:33:47;16.00;99.90
47336;DHT22;33068;51.990;5.926;2023-07-31T01:36:14;16.00;99.90
47336;DHT22;33068;51.990;5.926;2023-07-31T01:38:40;16.00;99.90
47336;DHT22;33068;51.990;5.926;2023-07-31T01:41:09;16.00;99.90
47336;DHT22;33068;51.990;5.926;2023-07-31T01:43:35;16.00;99.90
47336;DHT22;33068;51.990;5.926;2023-07-31T01:46:01;16.00;99.90
47336;DHT22;33068;51.990;5.926;2023-07-31T01:48:28;16.10;99.90
47336;DHT22;33068;51.990;5.926;2023-07-31T01:50:54;16.00;99.90
47336;DHT22;33068;51.990;5.926;2023-07-31T01:53:21;16.10;99.90
47336;DHT22;33068;51.990;5.926;2023-07-31T01:55:47;16.00;99.90
47336;DHT22;33068;51.990;5.926;2023-07-31T01:58:14;16.10;99.90
47336;DHT22;33068;51.990;5.926;2023-07-31T02:00:41;16.00;99.90
47336;DHT22;33068;51.990;5.926;2023-07-31T02:03:07;16.00;99.90
47336;DHT22;33068;51.990;5.926;2023-07-31T02:05:33;16.00;99.90
47336;DHT22;33068;51.990;5.926;2023-07-31T02:08:00;16.10;99.90
47336;DHT22;33068;51.990;5.926;2023-07-31T02:10:27;16.10;99.90
47336;DHT22;33068;51.990;5.926;2023-07-31T02:12:53;16.10;99.90
47336;DHT22;33068;51.990;5.926;2023-07-31T02:15:20;16.00;99.90
47336;DHT22;33068;51.990;5.926;2023-07-31T02:17:47;16.10;99.90
47336;DHT22;33068;51.990;5.926;2023-07-31T02:20:13;16.10;99.90
47336;DHT22;33068;51.990;5.926;2023-07-31T02:22:40;16.10;99.90
47336;DHT22;33068;51.990;5.926;2023-07-31T02:25:07;16.00;99.90
47336;DHT22;33068;51.990;5.926;2023-07-31T02:27:34;16.10;99.90
47336;DHT22;33068;51.990;5.926;2023-07-31T02:30:00;15.80;99.90
47336;DHT22;33068;51.990;5.926;2023-07-31T02:32:27;15.90;99.90
47336;DHT22;33068;51.990;5.926;2023-07-31T02:34:54;16.20;99.90
47336;DHT22;33068;51.990;5.926;2023-07-31T02:37:20;16.10;99.90
47336;DHT22;33068;51.990;5.926;2023-07-31T02:39:47;16.00;99.90
47336;DHT22;33068;51.990;5.926;2023-07-31T02:42:13;16.00;99.90
47336;DHT22;33068;51.990;5.926;2023-07-31T02:44:40;16.00;99.90
47336;DHT22;33068;51.990;5.926;2023-07-31T02:47:07;16.00;99.90
47336;DHT22;33068;51.990;5.926;2023-07-31T02:49:34;16.00;99.90
47336;DHT22;33068;51.990;5.926;2023-07-31T02:52:00;16.00;99.90
47336;DHT22;33068;51.990;5.926;2023-07-31T02:54:27;16.00;99.90
47336;DHT22;33068;51.990;5.926;2023-07-31T02:56:53;16.00;99.90
47336;DHT22;33068;51.990;5.926;2023-07-31T02:59:21;16.00;99.90
47336;DHT22;33068;51.990;5.926;2023-07-31T03:01:47;16.00;99.90
47336;DHT22;33068;51.990;5.926;2023-07-31T03:04:14;16.00;99.90
47336;DHT22;33068;51.990;5.926;2023-07-31T03:06:41;16.00;99.90
47336;DHT22;33068;51.990;5.926;2023-07-31T03:09:07;16.10;99.90
47336;DHT22;33068;51.990;5.926;2023-07-31T03:11:34;16.10;99.90
47336;DHT22;33068;51.990;5.926;2023-07-31T03:14:00;16.00;99.90
47336;DHT22;33068;51.990;5.926;2023-07-31T03:16:26;16.00;99.90
47336;DHT22;33068;51.990;5.926;2023-07-31T03:18:54;16.00;99.90
47336;DHT22;33068;51.990;5.926;2023-07-31T03:21:21;16.00;99.90
47336;DHT22;33068;51.990;5.926;2023-07-31T03:23:48;15.90;99.90
47336;DHT22;33068;51.990;5.926;2023-07-31T03:26:14;16.00;99.90
47336;DHT22;33068;51.990;5.926;2023-07-31T03:28:41;16.00;99.90
47336;DHT22;33068;51.990;5.926;2023-07-31T03:31:07;16.00;99.90
47336;DHT22;33068;51.990;5.926;2023-07-31T03:33:34;15.90;99.90
47336;DHT22;33068;51.990;5.926;2023-07-31T03:36:00;15.80;99.90
47336;DHT22;33068;51.990;5.926;2023-07-31T03:38:27;15.70;99.90
47336;DHT22;33068;51.990;5.926;2023-07-31T03:40:54;15.90;99.90
47336;DHT22;33068;51.990;5.926;2023-07-31T03:43:21;15.90;99.90
47336;DHT22;33068;51.990;5.926;2023-07-31T03:45:47;15.60;99.90
47336;DHT22;33068;51.990;5.926;2023-07-31T03:48:14;15.70;99.90
47336;DHT22;33068;51.990;5.926;2023-07-31T03:50:41;15.80;99.90
47336;DHT22;33068;51.990;5.926;2023-07-31T03:53:07;15.90;99.90
47336;DHT22;33068;51.990;5.926;2023-07-31T03:55:34;15.80;99.90
47336;DHT22;33068;51.990;5.926;2023-07-31T03:58:01;15.90;99.90
47336;DHT22;33068;51.990;5.926;2023-07-31T04:00:27;15.50;99.90
47336;DHT22;33068;51.990;5.926;2023-07-31T04:02:54;15.80;99.90
47336;DHT22;33068;51.990;5.926;2023-07-31T04:05:20;15.80;99.90
47336;DHT22;33068;51.990;5.926;2023-07-31T04:07:47;15.80;99.90
47336;DHT22;33068;51.990;5.926;2023-07-31T04:10:13;15.80;99.90
47336;DHT22;33068;51.990;5.926;2023-07-31T04:12:39;15.70;99.90
47336;DHT22;33068;51.990;5.926;2023-07-31T04:15:07;15.50;99.90
47336;DHT22;33068;51.990;5.926;2023-07-31T04:17:34;15.70;99.90
47336;DHT22;33068;51.990;5.926;2023-07-31T04:20:00;15.80;99.90
47336;DHT22;33068;51.990;5.926;2023-07-31T04:22:27;15.80;99.90
47336;DHT22;33068;51.990;5.926;2023-07-31T04:24:53;15.80;99.90
47336;DHT22;33068;51.990;5.926;2023-07-31T04:27:20;15.70;99.90
47336;DHT22;33068;51.990;5.926;2023-07-31T04:29:46;15.80;99.90
47336;DHT22;33068;51.990;5.926;2023-07-31T04:32:14;15.80;99.90
47336;DHT22;33068;51.990;5.926;2023-07-31T04:34:42;15.80;99.90
47336;DHT22;33068;51.990;5.926;2023-07-31T04:37:08;15.70;99.90
47336;DHT22;33068;51.990;5.926;2023-07-31T04:39:35;15.80;99.90
47336;DHT22;33068;51.990;5.926;2023-07-31T04:42:01;15.70;99.90
47336;DHT22;33068;51.990;5.926;2023-07-31T04:44:28;15.80;99.90
47336;DHT22;33068;51.990;5.926;2023-07-31T04:46:54;15.70;99.90
47336;DHT22;33068;51.990;5.926;2023-07-31T04:49:21;15.80;99.90
47336;DHT22;33068;51.990;5.926;2023-07-31T04:51:48;15.80;99.90
47336;DHT22;33068;51.990;5.926;2023-07-31T04:54:14;15.80;99.90
47336;DHT22;33068;51.990;5.926;2023-07-31T04:56:41;15.80;99.90
47336;DHT22;33068;51.990;5.926;2023-07-31T04:59:07;15.80;99.90
47336;DHT22;33068;51.990;5.926;2023-07-31T05:01:34;15.80;99.90
47336;DHT22;33068;51.990;5.926;2023-07-31T05:04:00;15.80;99.90
47336;DHT22;33068;51.990;5.926;2023-07-31T05:06:27;15.80;99.90
47336;DHT22;33068;51.990;5.926;2023-07-31T05:08:53;15.80;99.90
47336;DHT22;33068;51.990;5.926;2023-07-31T05:11:20;15.70;99.90
47336;DHT22;33068;51.990;5.926;2023-07-31T05:13:46;15.80;99.90
47336;DHT22;33068;51.990;5.926;2023-07-31T05:16:12;15.80;99.90
47336;DHT22;33068;51.990;5.926;2023-07-31T05:18:39;16.00;99.90
47336;DHT22;33068;51.990;5.926;2023-07-31T05:21:05;15.80;99.90
47336;DHT22;33068;51.990;5.926;2023-07-31T05:23:32;15.80;99.90
47336;DHT22;33068;51.990;5.926;2023-07-31T05:26:03;15.90;99.90
47336;DHT22;33068;51.990;5.926;2023-07-31T05:28:30;15.80;99.90
47336;DHT22;33068;51.990;5.926;2023-07-31T05:30:59;15.50;99.90
47336;DHT22;33068;51.990;5.926;2023-07-31T05:33:25;15.80;99.90
47336;DHT22;33068;51.990;5.926;2023-07-31T05:35:52;15.80;99.90
47336;DHT22;33068;51.990;5.926;2023-07-31T05:38:19;15.80;99.90
47336;DHT22;33068;51.990;5.926;2023-07-31T05:40:46;15.80;99.90
47336;DHT22;33068;51.990;5.926;2023-07-31T05:43:13;15.90;99.90
47336;DHT22;33068;51.990;5.926;2023-07-31T05:45:39;15.80;99.90
47336;DHT22;33068;51.990;5.926;2023-07-31T05:48:06;15.80;99.90
47336;DHT22;33068;51.990;5.926;2023-07-31T05:50:32;15.40;99.90
47336;DHT22;33068;51.990;5.926;2023-07-31T05:52:59;15.80;99.90
47336;DHT22;33068;51.990;5.926;2023-07-31T05:55:25;15.90;99.90
47336;DHT22;33068;51.990;5.926;2023-07-31T05:57:53;15.80;99.90
47336;DHT22;33068;51.990;5.926;2023-07-31T06:00:19;15.80;99.90
47336;DHT22;33068;51.990;5.926;2023-07-31T06:02:47;15.80;99.90
47336;DHT22;33068;51.990;5.926;2023-07-31T06:05:13;15.80;99.90
47336;DHT22;33068;51.990;5.926;2023-07-31T06:07:40;15.80;99.90
47336;DHT22;33068;51.990;5.926;2023-07-31T06:10:07;15.80;99.90
47336;DHT22;33068;51.990;5.926;2023-07-31T06:12:34;15.80;99.90
47336;DHT22;33068;51.990;5.926;2023-07-31T06:15:02;15.80;99.90
47336;DHT22;33068;51.990;5.926;2023-07-31T06:17:29;15.90;99.90
47336;DHT22;33068;51.990;5.926;2023-07-31T06:19:57;15.90;99.90
47336;DHT22;33068;51.990;5.926;2023-07-31T06:22:23;15.90;99.90
47336;DHT22;33068;51.990;5.926;2023-07-31T06:24:50;15.90;99.90
47336;DHT22;33068;51.990;5.926;2023-07-31T06:27:16;15.70;99.90
47336;DHT22;33068;51.990;5.926;2023-07-31T06:29:42;16.00;99.90
47336;DHT22;33068;51.990;5.926;2023-07-31T06:32:09;16.00;99.90
47336;DHT22;33068;51.990;5.926;2023-07-31T06:34:36;16.00;99.90
47336;DHT22;33068;51.990;5.926;2023-07-31T06:37:02;15.70;99.90
47336;DHT22;33068;51.990;5.926;2023-07-31T06:39:29;16.10;99.90
47336;DHT22;33068;51.990;5.926;2023-07-31T06:41:55;16.10;99.90
47336;DHT22;33068;51.990;5.926;2023-07-31T06:44:21;16.10;99.90
47336;DHT22;33068;51.990;5.926;2023-07-31T06:46:48;16.10;99.90
47336;DHT22;33068;51.990;5.926;2023-07-31T06:49:15;16.20;99.90
47336;DHT22;33068;51.990;5.926;2023-07-31T06:51:41;16.20;99.90
47336;DHT22;33068;51.990;5.926;2023-07-31T06:54:08;16.20;99.90
47336;DHT22;33068;51.990;5.926;2023-07-31T06:56:34;16.30;99.90
47336;DHT22;33068;51.990;5.926;2023-07-31T06:59:01;16.30;99.90
47336;DHT22;33068;51.990;5.926;2023-07-31T07:01:27;16.40;99.90
47336;DHT22;33068;51.990;5.926;2023-07-31T07:03:54;16.30;99.90
47336;DHT22;33068;51.990;5.926;2023-07-31T07:06:22;16.30;99.90
47336;DHT22;33068;51.990;5.926;2023-07-31T07:08:49;16.30;99.90
47336;DHT22;33068;51.990;5.926;2023-07-31T07:11:15;16.30;99.90
47336;DHT22;33068;51.990;5.926;2023-07-31T07:13:41;16.30;99.90
47336;DHT22;33068;51.990;5.926;2023-07-31T07:16:08;16.40;99.90
47336;DHT22;33068;51.990;5.926;2023-07-31T07:18:36;16.40;99.90
47336;DHT22;33068;51.990;5.926;2023-07-31T07:21:02;16.50;99.90
47336;DHT22;33068;51.990;5.926;2023-07-31T07:23:29;16.50;99.90
47336;DHT22;33068;51.990;5.926;2023-07-31T07:25:56;16.50;99.90
47336;DHT22;33068;51.990;5.926;2023-07-31T07:28:22;16.60;99.90
47336;DHT22;33068;51.990;5.926;2023-07-31T07:30:51;16.70;99.90
47336;DHT22;33068;51.990;5.926;2023-07-31T07:33:18;16.80;99.90
47336;DHT22;33068;51.990;5.926;2023-07-31T07:35:45;16.80;99.90
47336;DHT22;33068;51.990;5.926;2023-07-31T07:38:11;16.80;99.90
47336;DHT22;33068;51.990;5.926;2023-07-31T07:40:39;16.70;99.90
47336;DHT22;33068;51.990;5.926;2023-07-31T07:43:06;16.40;99.90
47336;DHT22;33068;51.990;5.926;2023-07-31T07:45:32;16.70;99.90
47336;DHT22;33068;51.990;5.926;2023-07-31T07:47:59;16.70;99.90
47336;DHT22;33068;51.990;5.926;2023-07-31T07:50:25;16.80;99.90
47336;DHT22;33068;51.990;5.926;2023-07-31T07:52:51;16.80;99.90
47336;DHT22;33068;51.990;5.926;2023-07-31T07:55:18;16.70;99.90
47336;DHT22;33068;51.990;5.926;2023-07-31T07:57:45;16.70;99.90
47336;DHT22;33068;51.990;5.926;2023-07-31T08:00:13;16.80;99.90
47336;DHT22;33068;51.990;5.926;2023-07-31T08:02:42;16.70;99.90
47336;DHT22;33068;51.990;5.926;2023-07-31T08:05:09;17.10;99.90
47336;DHT22;33068;51.990;5.926;2023-07-31T08:07:35;16.80;99.90
47336;DHT22;33068;51.990;5.926;2023-07-31T08:10:02;16.80;99.90
47336;DHT22;33068;51.990;5.926;2023-07-31T08:12:28;16.80;99.90
47336;DHT22;33068;51.990;5.926;2023-07-31T08:14:55;16.90;99.90
47336;DHT22;33068;51.990;5.926;2023-07-31T08:17:23;16.90;99.90
47336;DHT22;33068;51.990;5.926;2023-07-31T08:19:50;16.80;99.90
47336;DHT22;33068;51.990;5.926;2023-07-31T08:22:16;17.00;99.90
47336;DHT22;33068;51.990;5.926;2023-07-31T08:24:42;16.90;99.90
47336;DHT22;33068;51.990;5.926;2023-07-31T08:27:09;17.00;99.90
47336;DHT22;33068;51.990;5.926;2023-07-31T08:29:35;17.00;99.90
47336;DHT22;33068;51.990;5.926;2023-07-31T08:32:03;17.00;99.90
47336;DHT22;33068;51.990;5.926;2023-07-31T08:34:29;17.10;99.90
47336;DHT22;33068;51.990;5.926;2023-07-31T08:36:56;17.10;99.90
47336;DHT22;33068;51.990;5.926;2023-07-31T08:39:23;17.10;99.90
47336;DHT22;33068;51.990;5.926;2023-07-31T08:41:49;17.10;99.90
47336;DHT22;33068;51.990;5.926;2023-07-31T08:44:17;17.20;99.90
47336;DHT22;33068;51.990;5.926;2023-07-31T08:46:44;17.20;99.90
47336;DHT22;33068;51.990;5.926;2023-07-31T08:49:13;17.20;99.90
47336;DHT22;33068;51.990;5.926;2023-07-31T08:51:41;17.30;99.90
47336;DHT22;33068;51.990;5.926;2023-07-31T08:54:07;17.40;99.90
47336;DHT22;33068;51.990;5.926;2023-07-31T08:56:35;17.40;99.90
47336;DHT22;33068;51.990;5.926;2023-07-31T08:59:04;17.40;99.90
47336;DHT22;33068;51.990;5.926;2023-07-31T09:01:32;17.40;99.90
47336;DHT22;33068;51.990;5.926;2023-07-31T09:04:02;17.40;99.90
47336;DHT22;33068;51.990;5.926;2023-07-31T09:06:31;17.50;99.90
47336;DHT22;33068;51.990;5.926;2023-07-31T09:08:58;17.50;99.90
47336;DHT22;33068;51.990;5.926;2023-07-31T09:11:25;17.70;99.90
47336;DHT22;33068;51.990;5.926;2023-07-31T09:13:53;17.50;99.90
47336;DHT22;33068;51.990;5.926;2023-07-31T09:16:27;17.50;99.90
47336;DHT22;33068;51.990;5.926;2023-07-31T09:18:56;17.60;99.90
47336;DHT22;33068;51.990;5.926;2023-07-31T09:21:23;17.50;99.90
47336;DHT22;33068;51.990;5.926;2023-07-31T09:23:52;17.40;99.90
47336;DHT22;33068;51.990;5.926;2023-07-31T09:26:30;17.10;99.90
47336;DHT22;33068;51.990;5.926;2023-07-31T09:28:56;17.40;99.90
47336;DHT22;33068;51.990;5.926;2023-07-31T09:31:32;17.40;99.90
47336;DHT22;33068;51.990;5.926;2023-07-31T09:33:58;17.40;99.90
47336;DHT22;33068;51.990;5.926;2023-07-31T09:36:29;17.50;99.90
47336;DHT22;33068;51.990;5.926;2023-07-31T09:39:02;17.40;99.90
47336;DHT22;33068;51.990;5.926;2023-07-31T09:41:30;17.50;99.90
47336;DHT22;33068;51.990;5.926;2023-07-31T09:43:56;17.50;99.90
47336;DHT22;33068;51.990;5.926;2023-07-31T09:46:27;17.70;99.90
47336;DHT22;33068;51.990;5.926;2023-07-31T09:48:54;17.60;99.90
47336;DHT22;33068;51.990;5.926;2023-07-31T09:51:29;17.50;99.90
47336;DHT22;33068;51.990;5.926;2023-07-31T09:53:57;17.40;99.90
47336;DHT22;33068;51.990;5.926;2023-07-31T09:56:24;17.50;99.90
47336;DHT22;33068;51.990;5.926;2023-07-31T09:58:52;17.60;99.90
47336;DHT22;33068;51.990;5.926;2023-07-31T10:01:20;17.60;99.90
47336;DHT22;33068;51.990;5.926;2023-07-31T10:03:46;17.60;99.90
47336;DHT22;33068;51.990;5.926;2023-07-31T10:06:14;17.60;99.90
47336;DHT22;33068;51.990;5.926;2023-07-31T10:08:44;17.60;99.90
47336;DHT22;33068;51.990;5.926;2023-07-31T10:11:14;17.70;99.90
47336;DHT22;33068;51.990;5.926;2023-07-31T10:13:42;17.60;99.90
47336;DHT22;33068;51.990;5.926;2023-07-31T10:16:09;17.60;99.90
47336;DHT22;33068;51.990;5.926;2023-07-31T10:18:37;17.70;99.90
47336;DHT22;33068;51.990;5.926;2023-07-31T10:21:04;17.70;99.90
47336;DHT22;33068;51.990;5.926;2023-07-31T10:23:32;17.70;99.90
47336;DHT22;33068;51.990;5.926;2023-07-31T10:25:59;17.70;99.90
47336;DHT22;33068;51.990;5.926;2023-07-31T10:28:27;17.80;99.90
47336;DHT22;33068;51.990;5.926;2023-07-31T10:30:55;18.00;99.90
47336;DHT22;33068;51.990;5.926;2023-07-31T10:33:22;18.10;99.90
47336;DHT22;33068;51.990;5.926;2023-07-31T10:35:48;18.10;99.90
47336;DHT22;33068;51.990;5.926;2023-07-31T10:38:15;17.80;99.90
47336;DHT22;33068;51.990;5.926;2023-07-31T10:40:42;18.00;99.90
47336;DHT22;33068;51.990;5.926;2023-07-31T10:43:08;18.00;99.90
47336;DHT22;33068;51.990;5.926;2023-07-31T10:45:42;18.00;99.90
47336;DHT22;33068;51.990;5.926;2023-07-31T10:48:13;18.00;99.90
47336;DHT22;33068;51.990;5.926;2023-07-31T10:50:47;18.10;99.90
47336;DHT22;33068;51.990;5.926;2023-07-31T10:53:23;18.10;99.90
47336;DHT22;33068;51.990;5.926;2023-07-31T10:55:50;18.20;99.90
47336;DHT22;33068;51.990;5.926;2023-07-31T10:58:19;18.10;99.90
47336;DHT22;33068;51.990;5.926;2023-07-31T11:00:46;18.00;99.90
47336;DHT22;33068;51.990;5.926;2023-07-31T11:03:14;18.30;99.90
47336;DHT22;33068;51.990;5.926;2023-07-31T11:05:49;18.30;99.90
47336;DHT22;33068;51.990;5.926;2023-07-31T11:08:19;18.40;99.90
47336;DHT22;33068;51.990;5.926;2023-07-31T11:10:48;18.40;99.90
47336;DHT22;33068;51.990;5.926;2023-07-31T11:13:15;18.40;99.90
47336;DHT22;33068;51.990;5.926;2023-07-31T11:15:41;18.40;99.90
47336;DHT22;33068;51.990;5.926;2023-07-31T11:18:08;18.40;99.90
47336;DHT22;33068;51.990;5.926;2023-07-31T11:20:37;18.30;99.90
47336;DHT22;33068;51.990;5.926;2023-07-31T11:23:05;18.40;99.90
47336;DHT22;33068;51.990;5.926;2023-07-31T11:25:33;18.40;99.90
47336;DHT22;33068;51.990;5.926;2023-07-31T11:28:03;18.50;99.90
47336;DHT22;33068;51.990;5.926;2023-07-31T11:30:30;18.40;99.90
47336;DHT22;33068;51.990;5.926;2023-07-31T11:32:56;18.30;99.90
47336;DHT22;33068;51.990;5.926;2023-07-31T11:35:23;18.30;99.90
47336;DHT22;33068;51.990;5.926;2023-07-31T11:37:50;18.20;99.90
47336;DHT22;33068;51.990;5.926;2023-07-31T11:40:16;18.30;99.90
47336;DHT22;33068;51.990;5.926;2023-07-31T11:42:42;18.30;99.90
47336;DHT22;33068;51.990;5.926;2023-07-31T11:45:09;18.40;99.90
47336;DHT22;33068;51.990;5.926;2023-07-31T11:47:37;18.60;99.90
47336;DHT22;33068;51.990;5.926;2023-07-31T11:50:05;18.40;99.90
47336;DHT22;33068;51.990;5.926;2023-07-31T11:52:36;18.40;99.90
47336;DHT22;33068;51.990;5.926;2023-07-31T11:55:05;18.50;99.90
47336;DHT22;33068;51.990;5.926;2023-07-31T11:57:35;18.50;99.90
47336;DHT22;33068;51.990;5.926;2023-07-31T12:00:04;18.50;99.90
47336;DHT22;33068;51.990;5.926;2023-07-31T12:02:31;18.50;99.90
47336;DHT22;33068;51.990;5.926;2023-07-31T12:04:58;18.40;99.90
47336;DHT22;33068;51.990;5.926;2023-07-31T12:07:24;18.50;99.90
47336;DHT22;33068;51.990;5.926;2023-07-31T12:09:53;18.50;99.90
47336;DHT22;33068;51.990;5.926;2023-07-31T12:12:20;18.50;99.90
47336;DHT22;33068;51.990;5.926;2023-07-31T12:14:47;18.60;99.90
47336;DHT22;33068;51.990;5.926;2023-07-31T12:17:14;18.50;99.90
47336;DHT22;33068;51.990;5.926;2023-07-31T12:19:41;18.60;99.90
47336;DHT22;33068;51.990;5.926;2023-07-31T12:22:12;18.60;99.90
47336;DHT22;33068;51.990;5.926;2023-07-31T12:24:39;18.50;99.90
47336;DHT22;33068;51.990;5.926;2023-07-31T12:27:10;18.60;99.90
47336;DHT22;33068;51.990;5.926;2023-07-31T12:29:37;18.60;99.90
47336;DHT22;33068;51.990;5.926;2023-07-31T12:32:19;18.60;99.90
47336;DHT22;33068;51.990;5.926;2023-07-31T12:34:46;18.60;99.90
47336;DHT22;33068;51.990;5.926;2023-07-31T12:37:12;18.60;99.90
47336;DHT22;33068;51.990;5.926;2023-07-31T12:39:39;18.60;99.90
47336;DHT22;33068;51.990;5.926;2023-07-31T12:42:06;18.60;99.90
47336;DHT22;33068;51.990;5.926;2023-07-31T12:44:33;18.60;99.90
47336;DHT22;33068;51.990;5.926;2023-07-31T12:46:59;18.30;99.90
47336;DHT22;33068;51.990;5.926;2023-07-31T12:49:26;18.50;99.90
47336;DHT22;33068;51.990;5.926;2023-07-31T12:51:52;18.50;99.90
47336;DHT22;33068;51.990;5.926;2023-07-31T12:54:19;18.50;99.90
47336;DHT22;33068;51.990;5.926;2023-07-31T12:56:46;18.40;99.90
47336;DHT22;33068;51.990;5.926;2023-07-31T12:59:12;18.40;99.90
47336;DHT22;33068;51.990;5.926;2023-07-31T13:01:40;18.40;99.90
47336;DHT22;33068;51.990;5.926;2023-07-31T13:04:07;18.30;99.90
47336;DHT22;33068;51.990;5.926;2023-07-31T13:06:34;18.30;99.90
47336;DHT22;33068;51.990;5.926;2023-07-31T13:09:00;18.30;99.90
47336;DHT22;33068;51.990;5.926;2023-07-31T13:11:29;18.30;99.90
47336;DHT22;33068;51.990;5.926;2023-07-31T13:13:55;18.40;99.90
47336;DHT22;33068;51.990;5.926;2023-07-31T13:16:22;18.50;99.90
47336;DHT22;33068;51.990;5.926;2023-07-31T13:18:49;18.50;99.90
47336;DHT22;33068;51.990;5.926;2023-07-31T13:21:17;18.60;99.90
47336;DHT22;33068;51.990;5.926;2023-07-31T13:23:43;18.70;99.90
47336;DHT22;33068;51.990;5.926;2023-07-31T13:26:10;18.70;99.90
47336;DHT22;33068;51.990;5.926;2023-07-31T13:28:36;18.60;99.90
47336;DHT22;33068;51.990;5.926;2023-07-31T13:31:03;18.60;99.90
47336;DHT22;33068;51.990;5.926;2023-07-31T13:33:29;18.70;99.90
47336;DHT22;33068;51.990;5.926;2023-07-31T13:35:56;18.40;99.90
47336;DHT22;33068;51.990;5.926;2023-07-31T13:38:26;18.80;99.90
47336;DHT22;33068;51.990;5.926;2023-07-31T13:40:52;18.80;99.90
47336;DHT22;33068;51.990;5.926;2023-07-31T13:43:18;18.80;99.90
47336;DHT22;33068;51.990;5.926;2023-07-31T13:45:45;18.60;99.90
47336;DHT22;33068;51.990;5.926;2023-07-31T13:48:11;18.70;99.90
47336;DHT22;33068;51.990;5.926;2023-07-31T13:50:38;18.70;99.90
47336;DHT22;33068;51.990;5.926;2023-07-31T13:53:05;18.70;99.90
47336;DHT22;33068;51.990;5.926;2023-07-31T13:55:31;18.60;99.90
47336;DHT22;33068;51.990;5.926;2023-07-31T13:57:58;18.60;99.90
47336;DHT22;33068;51.990;5.926;2023-07-31T14:00:24;18.60;99.90
47336;DHT22;33068;51.990;5.926;2023-07-31T14:02:51;18.80;99.90
47336;DHT22;33068;51.990;5.926;2023-07-31T14:05:17;18.70;99.90
47336;DHT22;33068;51.990;5.926;2023-07-31T14:07:44;18.70;99.90
47336;DHT22;33068;51.990;5.926;2023-07-31T14:10:11;18.60;99.90
47336;DHT22;33068;51.990;5.926;2023-07-31T14:12:38;18.60;99.90
47336;DHT22;33068;51.990;5.926;2023-07-31T14:15:05;18.50;99.90
47336;DHT22;33068;51.990;5.926;2023-07-31T14:17:31;18.50;99.90
47336;DHT22;33068;51.990;5.926;2023-07-31T14:20:03;18.10;99.90
47336;DHT22;33068;51.990;5.926;2023-07-31T14:22:29;18.50;99.90
47336;DHT22;33068;51.990;5.926;2023-07-31T14:24:56;18.50;99.90
47336;DHT22;33068;51.990;5.926;2023-07-31T14:27:23;18.50;99.90
47336;DHT22;33068;51.990;5.926;2023-07-31T14:29:49;18.40;99.90
47336;DHT22;33068;51.990;5.926;2023-07-31T14:32:16;18.60;99.90
47336;DHT22;33068;51.990;5.926;2023-07-31T14:34:42;18.50;99.90
47336;DHT22;33068;51.990;5.926;2023-07-31T14:37:09;18.50;99.90
47336;DHT22;33068;51.990;5.926;2023-07-31T14:39:35;18.80;99.90
47336;DHT22;33068;51.990;5.926;2023-07-31T14:42:02;18.50;99.90
47336;DHT22;33068;51.990;5.926;2023-07-31T14:44:29;18.50;99.90
47336;DHT22;33068;51.990;5.926;2023-07-31T14:46:58;18.50;99.90
47336;DHT22;33068;51.990;5.926;2023-07-31T14:49:26;18.40;99.90
47336;DHT22;33068;51.990;5.926;2023-07-31T14:51:56;18.40;99.90
47336;DHT22;33068;51.990;5.926;2023-07-31T14:54:22;18.40;99.90
47336;DHT22;33068;51.990;5.926;2023-07-31T14:56:49;18.40;99.90
47336;DHT22;33068;51.990;5.926;2023-07-31T14:59:15;18.30;99.90
47336;DHT22;33068;51.990;5.926;2023-07-31T15:01:42;18.30;99.90
47336;DHT22;33068;51.990;5.926;2023-07-31T15:04:08;18.30;99.90
47336;DHT22;33068;51.990;5.926;2023-07-31T15:06:35;18.30;99.90
47336;DHT22;33068;51.990;5.926;2023-07-31T15:09:01;18.20;99.90
47336;DHT22;33068;51.990;5.926;2023-07-31T15:11:28;18.20;99.90
47336;DHT22;33068;51.990;5.926;2023-07-31T15:13:54;18.20;99.90
47336;DHT22;33068;51.990;5.926;2023-07-31T15:16:21;18.20;99.90
47336;DHT22;33068;51.990;5.926;2023-07-31T15:18:49;18.20;99.90
47336;DHT22;33068;51.990;5.926;2023-07-31T15:21:15;18.20;99.90
47336;DHT22;33068;51.990;5.926;2023-07-31T15:23:43;18.20;99.90
47336;DHT22;33068;51.990;5.926;2023-07-31T15:26:12;18.20;99.90
47336;DHT22;33068;51.990;5.926;2023-07-31T15:28:39;18.20;99.90
47336;DHT22;33068;51.990;5.926;2023-07-31T15:31:05;18.20;99.90